Flugplatz Erbach

Für EDNE sind keine METAR/TAF Berichte vorhanden.
Es werden die Flugwettermeldungen vom Flugplatz Laupheim Airport in 13 km Entfernung angezeigt.

Bericht für ETHL

vom 25.09. um 19:20 UTC

Wind 9 kt aus 220°

Sichtweite 9000 m

Temperatur 7.0°C

Taupunkt 5.0°C

Luftfeuchtigkeit 87%

Luftdruck 1002 hPa

ETHL 251920Z AUTO 22009KT 9000 // ////// 07/05 Q1002 ///
Keine Prognose (TAF) verfügbar.
Impressum